Giese, Minnesota
Current Conditions -  °F | °C
As of 2:24 AM on Saturday 25 Oct 2014 (Local Time) from K04W Reporting Station
Clear Clear  
Wind Chill: 54°   Ceiling: Unl
Heat Index: 54°   Visibility: 10mi
Dew Point: 36°   Wind: 3mph
Humidity: 51%   Direction: 270°W
Pressure: 29.88"   Gusts: NA
Location:  46.2114°N, 92.9743°W
Report Text: K04W 250724Z AUTO 27003KT 10SM CLR 12/02 A2988 RMK AO2
Loading
Personal Weather Stations






























Interactive Weather Map
Tropical Storm Tracking
New forecast layout! Learn more

10-Day Weather Forecast

Advertisements
Track Severe Weather on mobile